Weather History for Wahpeton, ND

Change the Weather History Date:

Tuesday, January 28, 2014

  Actual Average (KFFM) Record (KFFM)
Temperature  
Mean Temperature -11 °F -  
Max Temperature 1 °F 16 °F 43 °F (1989)
Min Temperature -23 °F -2 °F -32 °F (1952)
Degree Days  
Heating Degree Days 76    
Moisture  
Dew Point -19 °F    
Average Humidity 68    
Maximum Humidity 76    
Minimum Humidity 55    
Precipitation  
Precipitation 0.00 in - - ()
Sea Level Pressure  
Sea Level Pressure 30.24 in    
Wind  
Wind Speed 10 mph (West)    
Max Wind Speed 18 mph    
Max Gust Speed -    
Visibility 10 miles    
Events      
Averages and records for this station are not official NWS values.
T = Trace of Precipitation, MM = Missing Value Source: NWS Daily Summary

Daily Weather History Graph

Daily Weather History Graph

Search for Another Location

Airport:

Trip Planner

Search our weather history database for the weather conditions in past years. The results will help you decide how hot, cold, wet, or windy it might be!

Date:

Astronomy

Jan. 28, 2014 Rise Set
Actual Time 7:53 AM CST 5:25 PM CST
Civil Twilight 7:21 AM CST 5:57 PM CST
Nautical Twilight 6:45 AM CST 6:34 PM CST
Astronomical Twilight 6:09 AM CST 7:09 PM CST
Moon 5:39 AM CST (1/28) 3:14 PM CST (1/28)
Length of Visible Light 10h 36m
Length of Day
9h 31m
Waning Crescent, 7% of the Moon is Illuminated
Jan 28
Waning Crescent
Jan 30
New
Feb 6
First Quarter
Feb 14
Full
Feb 22
Last Quarter

Hourly Weather History & Observations

Time (CST) Temp. Windchill Dew Point Humidity Pressure Visibility Wind Dir Wind Speed Gust Speed Precip Events Conditions
12:15 AM -16.6 °F -35.7 °F -23.8 °F 70% 30.37 in 10.0 mi WNW 9.2 mph - N/A   Clear
12:35 AM -16.6 °F -35.7 °F -23.8 °F 70% 30.37 in 10.0 mi WNW 9.2 mph - N/A   Clear
12:55 AM -18.4 °F -37.9 °F -25.6 °F 70% 30.36 in 10.0 mi West 9.2 mph - N/A   Clear
1:15 AM -20.2 °F -38.8 °F -27.4 °F 69% 30.36 in 10.0 mi WNW 8.1 mph - N/A   Clear
1:35 AM -18.4 °F -35.1 °F -25.6 °F 70% 30.36 in 10.0 mi WNW 6.9 mph - N/A   Clear
1:55 AM -18.4 °F -35.1 °F -25.6 °F 70% 30.36 in 10.0 mi WNW 6.9 mph - N/A   Clear
2:15 AM -18.4 °F -31.4 °F -25.6 °F 70% 30.35 in 10.0 mi West 4.6 mph - N/A   Clear
2:35 AM -22.0 °F -39.4 °F -27.4 °F 76% 30.35 in 10.0 mi West 6.9 mph - N/A   Clear
2:55 AM -22.0 °F -42.3 °F -27.4 °F 76% 30.35 in 10.0 mi West 9.2 mph - N/A   Clear
3:15 AM -22.0 °F -41.0 °F -29.2 °F 69% 30.36 in 10.0 mi West 8.1 mph - N/A   Clear
3:35 AM -23.8 °F -43.2 °F -29.2 °F 76% 30.35 in 10.0 mi West 8.1 mph - N/A   Clear
3:55 AM -22.0 °F -42.3 °F -27.4 °F 76% 30.34 in 10.0 mi West 9.2 mph - N/A   Clear
4:15 AM -22.0 °F -39.4 °F -29.2 °F 69% 30.34 in 10.0 mi West 6.9 mph - N/A   Clear
4:35 AM -23.8 °F -44.5 °F -31.0 °F 69% 30.34 in 10.0 mi West 9.2 mph - N/A   Clear
4:55 AM -22.0 °F -43.6 °F -27.4 °F 76% 30.34 in 10.0 mi West 10.4 mph - N/A   Clear
5:15 AM -22.0 °F -42.3 °F -29.2 °F 69% 30.34 in 10.0 mi West 9.2 mph - N/A   Clear
5:35 AM -22.0 °F -41.0 °F -29.2 °F 69% 30.34 in 10.0 mi West 8.1 mph - N/A   Clear
5:55 AM -22.0 °F -44.7 °F -27.4 °F 76% 30.33 in 10.0 mi West 11.5 mph - N/A   Clear
6:15 AM -20.2 °F -40.1 °F -27.4 °F 69% 30.33 in 10.0 mi West 9.2 mph - N/A   Clear
6:35 AM -20.2 °F -41.3 °F -27.4 °F 69% 30.32 in 10.0 mi West 10.4 mph - N/A   Clear
6:55 AM -20.2 °F -41.3 °F -27.4 °F 69% 30.32 in 10.0 mi West 10.4 mph - N/A   Clear
7:15 AM -20.2 °F -38.8 °F -27.4 °F 69% 30.32 in 10.0 mi West 8.1 mph - N/A   Clear
7:35 AM -20.2 °F -37.3 °F -27.4 °F 69% 30.32 in 10.0 mi West 6.9 mph - N/A   Clear
7:55 AM -22.0 °F -42.3 °F -27.4 °F 76% 30.32 in 10.0 mi West 9.2 mph - N/A   Clear
8:15 AM -20.2 °F -40.1 °F -27.4 °F 69% 30.31 in 10.0 mi West 9.2 mph - N/A   Clear
8:35 AM -20.2 °F -41.3 °F -27.4 °F 69% 30.31 in 10.0 mi West 10.4 mph - N/A   Clear
8:55 AM -18.4 °F -40.2 °F -25.6 °F 70% 30.31 in 10.0 mi West 11.5 mph - N/A   Clear
9:15 AM -16.6 °F -35.7 °F -23.8 °F 70% 30.31 in 10.0 mi West 9.2 mph - N/A   Clear
9:35 AM -14.8 °F -33.5 °F -23.8 °F 64% 30.30 in 10.0 mi West 9.2 mph - N/A   Clear
9:55 AM -13.0 °F -35.2 °F -22.0 °F 64% 30.30 in 10.0 mi West 13.8 mph - N/A   Clear
10:15 AM -13.0 °F -34.3 °F -20.2 °F 70% 30.30 in 7.0 mi West 12.7 mph - N/A   Clear
10:35 AM -9.4 °F -32.1 °F -18.4 °F 65% 30.29 in 7.0 mi West 16.1 mph - N/A   Clear
10:55 AM -9.4 °F -30.6 °F -18.4 °F 65% 30.29 in 10.0 mi West 13.8 mph - N/A   Clear
11:15 AM -7.6 °F -27.5 °F -18.4 °F 59% 30.29 in 10.0 mi West 12.7 mph - N/A   Clear
11:35 AM -7.6 °F -29.1 °F -16.6 °F 65% 30.28 in 10.0 mi West 15.0 mph - N/A   Clear
11:55 AM -5.8 °F -28.8 °F -16.6 °F 60% 30.27 in 10.0 mi West 18.4 mph - N/A   Clear
12:15 PM -5.8 °F -26.8 °F -14.8 °F 65% 30.26 in 10.0 mi West 15.0 mph - N/A   Clear
12:35 PM -4.0 °F -25.2 °F -14.8 °F 60% 30.25 in 10.0 mi West 16.1 mph - N/A   Clear
12:55 PM -4.0 °F -25.2 °F -14.8 °F 60% 30.23 in 10.0 mi West 16.1 mph - N/A   Clear
1:15 PM -2.2 °F -24.1 °F -13.0 °F 60% 30.23 in 10.0 mi West 18.4 mph - N/A   Clear
1:35 PM -2.2 °F -23.5 °F -13.0 °F 60% 30.22 in 10.0 mi West 17.3 mph - N/A   Clear
1:55 PM -0.4 °F -21.2 °F -13.0 °F 55% 30.21 in 10.0 mi West 17.3 mph - N/A   Clear
2:15 PM -0.4 °F -20.5 °F -11.2 °F 60% 30.21 in 10.0 mi West 16.1 mph - N/A   Clear
2:35 PM 1.4 °F -19.4 °F -11.2 °F 56% 30.20 in 10.0 mi West 18.4 mph - N/A   Clear
2:55 PM 1.4 °F -18.2 °F -9.4 °F 61% 30.19 in 10.0 mi West 16.1 mph - N/A   Clear
3:15 PM 1.4 °F -18.2 °F -9.4 °F 61% 30.19 in 10.0 mi West 16.1 mph - N/A   Clear
3:35 PM 1.4 °F -18.8 °F -9.4 °F 61% 30.19 in 10.0 mi West 17.3 mph - N/A   Scattered Clouds
3:55 PM 1.4 °F -17.6 °F -9.4 °F 61% 30.18 in 10.0 mi West 15.0 mph - N/A   Mostly Cloudy
4:15 PM 1.4 °F -17.6 °F -9.4 °F 61% 30.18 in 10.0 mi West 15.0 mph - N/A   Scattered Clouds
4:35 PM 1.4 °F -15.3 °F -9.4 °F 61% 30.17 in 10.0 mi West 11.5 mph - N/A   Clear
4:55 PM 1.4 °F -15.3 °F -9.4 °F 61% 30.16 in 10.0 mi West 11.5 mph - N/A   Clear
5:15 PM -0.4 °F -16.7 °F -9.4 °F 66% 30.16 in 10.0 mi West 10.4 mph - N/A   Clear
5:35 PM -2.2 °F -18.0 °F -9.4 °F 71% 30.15 in 10.0 mi West 9.2 mph - N/A   Clear
5:55 PM -4.0 °F -21.2 °F -11.2 °F 71% 30.15 in 10.0 mi West 10.4 mph - N/A   Clear
6:15 PM -4.0 °F -17.8 °F -13.0 °F 65% 30.15 in 10.0 mi West 6.9 mph - N/A   Clear
6:35 PM -5.8 °F -19.9 °F -13.0 °F 71% 30.14 in 10.0 mi West 6.9 mph - N/A   Clear
6:55 PM -5.8 °F -19.9 °F -14.8 °F 65% 30.14 in 10.0 mi West 6.9 mph - N/A   Clear
7:15 PM -5.8 °F -16.7 °F -14.8 °F 65% 30.13 in 10.0 mi West 4.6 mph - N/A   Clear
7:35 PM -5.8 °F -18.4 °F -13.0 °F 71% 30.12 in 10.0 mi WSW 5.8 mph - N/A   Clear
7:55 PM -7.6 °F -20.6 °F -14.8 °F 71% 30.11 in 10.0 mi WSW 5.8 mph - N/A   Clear
8:15 PM -5.8 °F -19.9 °F -14.8 °F 65% 30.11 in 10.0 mi West 6.9 mph - N/A   Clear
8:35 PM -7.6 °F -23.4 °F -14.8 °F 71% 30.10 in 10.0 mi WSW 8.1 mph - N/A   Clear
8:55 PM -7.6 °F -18.8 °F -14.8 °F 71% 30.09 in 10.0 mi WSW 4.6 mph - N/A   Clear
9:15 PM -7.6 °F -18.8 °F -14.8 °F 71% 30.09 in 10.0 mi WSW 4.6 mph - N/A   Clear
9:35 PM -7.6 °F -18.8 °F -14.8 °F 71% 30.08 in 10.0 mi WSW 4.6 mph - N/A   Clear
9:55 PM -5.8 °F -18.4 °F -13.0 °F 71% 30.07 in 10.0 mi WSW 5.8 mph - N/A   Clear
10:15 PM -5.8 °F -16.7 °F -13.0 °F 71% 30.06 in 10.0 mi WSW 4.6 mph - N/A   Clear
10:35 PM -7.6 °F -20.6 °F -14.8 °F 71% 30.05 in 10.0 mi West 5.8 mph - N/A   Clear
10:55 PM -7.6 °F -20.6 °F -14.8 °F 71% 30.05 in 10.0 mi West 5.8 mph - N/A   Clear
11:15 PM -7.6 °F -20.6 °F -14.8 °F 71% 30.04 in 10.0 mi West 5.8 mph - N/A   Clear
11:35 PM -7.6 °F -16.5 °F -14.8 °F 71% 30.04 in 10.0 mi WSW 3.5 mph - N/A   Clear
11:55 PM -5.8 °F -16.7 °F -13.0 °F 71% 30.02 in 10.0 mi WSW 4.6 mph - N/A   Clear